createdAt,value
2023-01-18T00:01:49.924Z,95144.44
2023-01-18T00:04:52.521Z,95141.69
2023-01-18T00:07:55.269Z,95130.72
2023-01-18T00:11:05.439Z,95127.81
2023-01-18T00:14:07.939Z,95122.97
2023-01-18T00:17:10.540Z,95112.00
2023-01-18T00:20:15.509Z,95103.59
2023-01-18T00:23:18.067Z,95106.34
2023-01-18T00:26:20.723Z,95106.53
2023-01-18T00:29:23.233Z,95106.03
2023-01-18T00:32:25.968Z,95101.34
2023-01-18T00:35:28.569Z,95108.47
2023-01-18T00:38:31.679Z,95105.88
2023-01-18T00:41:34.353Z,95122.34
2023-01-18T00:44:36.899Z,95110.72
2023-01-18T00:47:39.544Z,95099.06
2023-01-18T00:50:42.074Z,95095.69
2023-01-18T00:53:45.877Z,95095.84
2023-01-18T00:56:48.404Z,95091.50
2023-01-18T00:59:50.923Z,95091.97
2023-01-18T01:02:53.794Z,95087.97
2023-01-18T01:06:15.419Z,95084.72
2023-01-18T01:09:19.461Z,95084.56
2023-01-18T01:12:40.488Z,95089.41
2023-01-18T01:16:01.961Z,95111.06
2023-01-18T01:19:23.422Z,95119.75
2023-01-18T01:22:44.627Z,95126.03
2023-01-18T01:26:08.168Z,95125.72
2023-01-18T01:29:10.770Z,95125.88
2023-01-18T01:32:13.626Z,95137.19
2023-01-18T01:35:16.239Z,95150.75
2023-01-18T01:38:18.717Z,95148.97
2023-01-18T01:41:26.753Z,95155.59
2023-01-18T01:44:34.392Z,95153.19
2023-01-18T01:47:41.700Z,95159.16
2023-01-18T01:50:44.123Z,95166.91
2023-01-18T01:53:47.813Z,95175.97
2023-01-18T01:56:52.282Z,95174.34
2023-01-18T01:59:59.962Z,95176.59
2023-01-18T02:03:06.579Z,95178.22
2023-01-18T02:06:31.802Z,95166.09
2023-01-18T02:09:34.552Z,95165.59
2023-01-18T02:12:39.151Z,95166.41
2023-01-18T02:16:07.349Z,95166.25
2023-01-18T02:19:13.769Z,95156.25
2023-01-18T02:22:48.190Z,95129.44
2023-01-18T02:26:09.321Z,95099.56
2023-01-18T02:29:30.297Z,95077.78
2023-01-18T02:32:52.692Z,95093.44
2023-01-18T02:36:00.483Z,95098.25
2023-01-18T02:39:13.035Z,95134.91
2023-01-18T02:42:39.658Z,95152.16
2023-01-18T02:46:03.832Z,95134.03
2023-01-18T02:49:13.397Z,95122.09
2023-01-18T02:52:38.586Z,95140.28
2023-01-18T02:56:04.197Z,95140.63
2023-01-18T02:59:15.779Z,95142.09
2023-01-18T03:02:21.228Z,95132.91
2023-01-18T03:05:24.905Z,95143.25
2023-01-18T03:08:49.143Z,95141.28
2023-01-18T03:12:20.891Z,95138.06
2023-01-18T03:15:29.370Z,95138.69
2023-01-18T03:19:00.476Z,95148.72
2023-01-18T03:22:03.333Z,95165.41
2023-01-18T03:25:07.351Z,95163.75
2023-01-18T03:28:37.591Z,95171.03
2023-01-18T03:32:13.718Z,95180.75
2023-01-18T03:35:17.429Z,95177.34
2023-01-18T03:38:20.535Z,95192.22
2023-01-18T03:41:25.850Z,95176.88
2023-01-18T03:44:40.602Z,95176.91
2023-01-18T03:47:43.117Z,95149.75
2023-01-18T03:51:01.015Z,95149.75
2023-01-18T03:54:16.607Z,95150.72
2023-01-18T03:57:24.950Z,95150.72
2023-01-18T04:00:27.575Z,95156.03
2023-01-18T04:03:33.890Z,95167.97
2023-01-18T04:06:36.572Z,95160.03
2023-01-18T04:09:39.102Z,95167.16
2023-01-18T04:12:41.686Z,95182.50
2023-01-18T04:15:44.257Z,95178.13
2023-01-18T04:18:46.843Z,95174.19
2023-01-18T04:21:49.320Z,95176.13
2023-01-18T04:24:51.819Z,95183.56
2023-01-18T04:27:54.338Z,95171.28
2023-01-18T04:30:57.691Z,95178.72
2023-01-18T04:34:03.145Z,95179.66
2023-01-18T04:37:05.636Z,95179.13
2023-01-18T04:40:09.137Z,95185.44
2023-01-18T04:43:11.700Z,95185.78
2023-01-18T04:46:15.531Z,95185.91
2023-01-18T04:49:18.176Z,95178.66
2023-01-18T04:52:20.761Z,95189.16
2023-01-18T04:55:23.310Z,95184.44
2023-01-18T04:58:25.999Z,95190.75
2023-01-18T05:01:29.808Z,95182.84
2023-01-18T05:04:32.454Z,95182.19
2023-01-18T05:07:35.105Z,95173.13
2023-01-18T05:10:37.670Z,95165.31
2023-01-18T05:13:41.158Z,95165.91
2023-01-18T05:16:43.768Z,95171.56
2023-01-18T05:19:47.081Z,95178.03
2023-01-18T05:22:49.590Z,95184.81
2023-01-18T05:25:54.020Z,95202.44
2023-01-18T05:28:57.433Z,95200.66
2023-01-18T05:32:00.074Z,95215.50
2023-01-18T05:35:04.626Z,95217.41
2023-01-18T05:38:07.223Z,95223.88
2023-01-18T05:41:09.976Z,95221.78
2023-01-18T05:44:12.668Z,95220.94
2023-01-18T05:47:15.291Z,95224.38
2023-01-18T05:50:17.973Z,95224.00
2023-01-18T05:53:22.770Z,95226.91
2023-01-18T05:56:25.628Z,95231.88
2023-01-18T05:59:28.291Z,95242.91
2023-01-18T06:02:30.873Z,95242.09
2023-01-18T06:05:33.462Z,95234.34
2023-01-18T06:08:36.270Z,95252.13
2023-01-18T06:11:38.921Z,95240.50
2023-01-18T06:14:41.488Z,95254.72
2023-01-18T06:21:06.178Z,95262.16
2023-01-18T06:24:08.810Z,95268.16
2023-01-18T06:27:11.482Z,95265.38
2023-01-18T06:30:14.518Z,95267.63
2023-01-18T06:33:17.454Z,95255.72
2023-01-18T06:36:20.045Z,95257.66
2023-01-18T06:39:22.627Z,95245.38
2023-01-18T06:42:25.224Z,95242.31
2023-01-18T06:45:29.488Z,95247.03
2023-01-18T06:48:32.302Z,95263.59
2023-01-18T06:51:35.188Z,95285.59
2023-01-18T06:54:37.768Z,95293.97
2023-01-18T06:57:40.613Z,95290.06
2023-01-18T07:00:43.235Z,95298.34
2023-01-18T07:03:45.807Z,95289.81
2023-01-18T07:06:48.415Z,95279.69
2023-01-18T07:09:50.938Z,95268.22
2023-01-18T07:12:53.622Z,95260.28
2023-01-18T07:16:00.849Z,95292.78
2023-01-18T07:19:04.829Z,95285.97
2023-01-18T07:22:07.360Z,95303.16
2023-01-18T07:25:13.778Z,95290.69
2023-01-18T07:28:16.472Z,95310.78
2023-01-18T07:31:20.436Z,95321.31
2023-01-18T07:34:23.085Z,95304.16
2023-01-18T07:37:25.654Z,95325.69
2023-01-18T07:40:28.210Z,95344.31
2023-01-18T07:43:32.600Z,95348.81
2023-01-18T07:46:35.202Z,95357.53
2023-01-18T07:49:37.814Z,95364.31
2023-01-18T07:52:40.445Z,95365.78
2023-01-18T07:55:42.934Z,95361.09
2023-01-18T07:58:45.899Z,95366.91
2023-01-18T08:01:48.560Z,95360.47
2023-01-18T08:04:51.345Z,95363.63
2023-01-18T08:07:54.480Z,95383.06
2023-01-18T08:10:58.399Z,95370.59
2023-01-18T08:14:01.042Z,95373.03
2023-01-18T08:17:03.937Z,95370.41
2023-01-18T08:20:09.566Z,95380.25
2023-01-18T08:23:12.365Z,95402.22
2023-01-18T08:26:15.517Z,95413.75
2023-01-18T08:29:18.170Z,95424.13
2023-01-18T08:32:20.785Z,95423.94
2023-01-18T08:35:28.551Z,95435.09
2023-01-18T08:38:31.128Z,95438.25
2023-01-18T08:41:36.889Z,95448.75
2023-01-18T08:44:39.412Z,95464.03
2023-01-18T08:47:42.609Z,95481.47
2023-01-18T08:50:46.146Z,95487.78
2023-01-18T08:53:51.920Z,95489.28
2023-01-18T08:56:54.706Z,95488.94
2023-01-18T08:59:57.463Z,95500.94
2023-01-18T09:03:02.968Z,95500.56
2023-01-18T09:06:10.035Z,95505.88
2023-01-18T09:09:13.941Z,95506.19
2023-01-18T09:12:16.692Z,95508.75
2023-01-18T09:15:19.547Z,95520.91
2023-01-18T09:18:23.201Z,95522.50
2023-01-18T09:21:28.197Z,95535.06
2023-01-18T09:24:30.944Z,95541.78
2023-01-18T09:27:33.869Z,95550.38
2023-01-18T09:30:36.561Z,95551.25
2023-01-18T09:33:41.208Z,95560.03
2023-01-18T09:36:49.348Z,95561.97
2023-01-18T09:39:52.676Z,95559.09
2023-01-18T09:42:55.472Z,95564.84
2023-01-18T09:45:59.930Z,95576.66
2023-01-18T09:49:04.609Z,95582.53
2023-01-18T09:52:27.959Z,95582.19
2023-01-18T09:55:45.758Z,95585.88
2023-01-18T09:59:00.007Z,95599.66
2023-01-18T10:02:04.763Z,95610.88
2023-01-18T10:05:12.241Z,95615.22
2023-01-18T10:08:24.243Z,95627.25
2023-01-18T10:11:45.164Z,95630.78
2023-01-18T10:14:50.271Z,95640.03
2023-01-18T10:17:56.455Z,95640.19
2023-01-18T10:21:02.003Z,95640.84
2023-01-18T10:24:06.918Z,95641.44
2023-01-18T10:27:27.392Z,95641.84
2023-01-18T10:30:38.831Z,95652.50
2023-01-18T10:33:43.423Z,95656.91
2023-01-18T10:36:55.066Z,95665.75
2023-01-18T10:40:06.561Z,95662.38
2023-01-18T10:43:12.486Z,95671.13
2023-01-18T10:46:18.994Z,95673.19
2023-01-18T10:49:42.396Z,95683.00
2023-01-18T10:52:45.101Z,95694.81
2023-01-18T10:55:56.004Z,95691.84
2023-01-18T10:59:02.181Z,95690.72
2023-01-18T11:02:05.232Z,95700.72
2023-01-18T11:05:20.125Z,95717.56
2023-01-18T11:08:33.029Z,95723.25
2023-01-18T11:11:54.466Z,95733.81
2023-01-18T11:14:57.398Z,95742.56
2023-01-18T11:18:06.380Z,95747.75
2023-01-18T11:25:04.182Z,95759.50
2023-01-18T11:28:17.230Z,95765.50
2023-01-18T11:31:25.738Z,95782.97
2023-01-18T11:34:32.077Z,95787.16
2023-01-18T11:37:43.802Z,95792.03
2023-01-18T11:40:46.486Z,95809.50
2023-01-18T11:44:22.923Z,95816.84
2023-01-18T11:47:43.149Z,95827.25
2023-01-18T11:50:59.953Z,95827.63
2023-01-18T11:54:18.927Z,95821.81
2023-01-18T11:57:21.647Z,95818.28
2023-01-18T12:00:28.499Z,95832.97
2023-01-18T12:03:40.453Z,95828.94
2023-01-18T12:06:52.044Z,95829.34
2023-01-18T12:09:56.585Z,95845.50
2023-01-18T12:13:21.296Z,95851.69
2023-01-18T12:16:29.852Z,95861.16
2023-01-18T12:19:58.800Z,95865.75
2023-01-18T12:23:29.136Z,95868.44
2023-01-18T12:26:55.120Z,95891.69
2023-01-18T12:30:05.353Z,95900.00
2023-01-18T12:33:43.453Z,95906.22
2023-01-18T12:36:55.340Z,95908.16
2023-01-18T12:40:13.486Z,95919.84
2023-01-18T12:43:18.939Z,95938.38
2023-01-18T12:46:48.048Z,95949.06
2023-01-18T12:49:52.854Z,95945.00
2023-01-18T12:52:59.847Z,95964.34
2023-01-18T12:56:10.637Z,95969.22
2023-01-18T12:59:20.123Z,95973.22
2023-01-18T13:02:40.803Z,95977.78
2023-01-18T13:05:55.857Z,95990.41
2023-01-18T13:09:05.579Z,96006.50
2023-01-18T13:12:08.531Z,96015.34
2023-01-18T13:15:26.512Z,96027.19
2023-01-18T13:18:34.158Z,96021.81
2023-01-18T13:21:45.774Z,96035.50
2023-01-18T13:25:10.569Z,96038.06
2023-01-18T13:28:13.151Z,96032.69
2023-01-18T13:31:15.947Z,96042.00
2023-01-18T13:34:48.033Z,96033.88
2023-01-18T13:37:55.981Z,96045.09
2023-01-18T13:41:04.590Z,96043.63
2023-01-18T13:44:27.328Z,96059.69
2023-01-18T13:47:36.124Z,96072.56
2023-01-18T13:50:39.782Z,96079.81
2023-01-18T13:53:50.510Z,96079.69
2023-01-18T13:57:04.726Z,96078.72
2023-01-18T14:00:24.703Z,96082.25
2023-01-18T14:03:39.171Z,96080.88
2023-01-18T14:06:43.954Z,96086.41
2023-01-18T14:09:48.052Z,96102.88
2023-01-18T14:12:53.007Z,96104.88
2023-01-18T14:15:55.762Z,96115.75
2023-01-18T14:19:12.296Z,96128.47
2023-01-18T14:22:20.915Z,96120.19
2023-01-18T14:25:35.687Z,96124.41
2023-01-18T14:28:47.226Z,96131.88
2023-01-18T14:31:53.808Z,96125.53
2023-01-18T14:35:01.446Z,96124.22
2023-01-18T14:38:17.860Z,96135.25
2023-01-18T14:41:21.292Z,96128.34
2023-01-18T14:44:31.316Z,96125.75
2023-01-18T14:47:34.262Z,96125.44
2023-01-18T14:50:40.212Z,96120.75
2023-01-18T14:53:47.563Z,96130.81
2023-01-18T14:56:50.976Z,96131.56
2023-01-18T15:00:04.513Z,96157.28
2023-01-18T15:03:12.964Z,96171.94
2023-01-18T15:06:18.590Z,96177.44
2023-01-18T15:09:27.231Z,96175.84
2023-01-18T15:12:32.452Z,96192.06
2023-01-18T15:15:41.607Z,96196.25
2023-01-18T15:18:44.374Z,96213.16
2023-01-18T15:21:47.438Z,96203.56
2023-01-18T15:24:50.417Z,96208.69
2023-01-18T15:27:53.797Z,96208.38
2023-01-18T15:30:57.116Z,96216.38
2023-01-18T15:33:59.699Z,96213.91
2023-01-18T15:37:04.855Z,96218.91
2023-01-18T15:40:13.602Z,96226.66
2023-01-18T15:43:28.539Z,96232.34
2023-01-18T15:46:33.331Z,96239.78
2023-01-18T15:49:36.285Z,96241.88
2023-01-18T15:52:45.415Z,96247.69
2023-01-18T15:55:51.596Z,96266.16
2023-01-18T15:58:56.199Z,96275.03
2023-01-18T16:02:19.192Z,96279.69
2023-01-18T16:05:24.138Z,96281.44
2023-01-18T16:08:27.036Z,96294.16
2023-01-18T16:11:36.978Z,96288.16
2023-01-18T16:14:46.416Z,96295.28
2023-01-18T16:17:49.221Z,96294.97
2023-01-18T16:20:53.018Z,96305.88
2023-01-18T16:23:57.357Z,96304.84
2023-01-18T16:27:10.294Z,96301.88
2023-01-18T16:30:26.508Z,96316.06
2023-01-18T16:33:29.178Z,96322.88
2023-01-18T16:36:37.983Z,96316.72
2023-01-18T16:39:44.959Z,96311.16
2023-01-18T16:43:01.608Z,96318.13
2023-01-18T16:46:04.808Z,96315.06
2023-01-18T16:49:12.299Z,96303.81
2023-01-18T16:52:15.375Z,96318.06
2023-01-18T16:55:18.488Z,96311.59
2023-01-18T16:58:21.908Z,96312.66
2023-01-18T17:01:25.113Z,96326.16
2023-01-18T17:04:28.059Z,96313.84
2023-01-18T17:07:30.914Z,96310.72
2023-01-18T17:10:39.741Z,96302.09
2023-01-18T17:13:42.827Z,96307.31
2023-01-18T17:16:47.254Z,96310.81
2023-01-18T17:19:51.794Z,96312.34
2023-01-18T17:22:55.929Z,96316.94
2023-01-18T17:26:01.851Z,96323.69
2023-01-18T17:29:05.400Z,96337.44
2023-01-18T17:32:09.789Z,96338.78
2023-01-18T17:35:13.497Z,96365.59
2023-01-18T17:38:23.771Z,96368.75
2023-01-18T17:41:29.251Z,96377.88
2023-01-18T17:44:37.431Z,96391.16
2023-01-18T17:47:43.018Z,96384.50
2023-01-18T17:50:47.200Z,96392.84
2023-01-18T17:53:50.211Z,96387.78
2023-01-18T17:56:53.603Z,96386.34
2023-01-18T17:59:56.729Z,96401.91
2023-01-18T18:03:01.219Z,96385.38
2023-01-18T18:06:05.199Z,96384.09
2023-01-18T18:09:08.354Z,96377.94
2023-01-18T18:12:12.883Z,96375.91
2023-01-18T18:15:16.089Z,96377.38
2023-01-18T18:18:23.131Z,96387.09
2023-01-18T18:21:27.899Z,96395.81
2023-01-18T18:24:30.599Z,96412.41
2023-01-18T18:27:44.959Z,96429.19
2023-01-18T18:30:49.277Z,96441.88
2023-01-18T18:33:52.453Z,96438.31
2023-01-18T18:36:55.452Z,96437.94
2023-01-18T18:39:58.503Z,96437.66
2023-01-18T18:43:03.070Z,96421.84
2023-01-18T18:46:06.410Z,96418.91
2023-01-18T18:49:09.677Z,96413.31
2023-01-18T18:52:12.913Z,96424.09
2023-01-18T18:55:16.737Z,96437.63
2023-01-18T18:58:19.706Z,96447.50
2023-01-18T19:01:27.755Z,96466.75
2023-01-18T19:04:32.587Z,96484.63
2023-01-18T19:07:38.535Z,96477.69
2023-01-18T19:10:41.945Z,96472.91
2023-01-18T19:13:47.492Z,96473.00
2023-01-18T19:16:51.348Z,96477.25
2023-01-18T19:19:54.253Z,96475.34
2023-01-18T19:22:57.188Z,96464.63
2023-01-18T19:26:00.564Z,96469.25
2023-01-18T19:29:03.654Z,96469.25
2023-01-18T19:32:06.620Z,96466.78
2023-01-18T19:35:09.621Z,96456.81
2023-01-18T19:38:13.300Z,96461.88
2023-01-18T19:41:16.780Z,96459.44
2023-01-18T19:44:19.971Z,96455.88
2023-01-18T19:47:23.250Z,96459.97
2023-01-18T19:50:27.408Z,96447.38
2023-01-18T19:53:31.470Z,96443.56
2023-01-18T19:56:35.025Z,96448.47
2023-01-18T19:59:37.866Z,96463.53
2023-01-18T20:02:41.635Z,96464.63
2023-01-18T20:05:45.207Z,96467.31
2023-01-18T20:08:51.312Z,96470.34
2023-01-18T20:11:54.468Z,96469.00
2023-01-18T20:14:57.937Z,96470.63
2023-01-18T20:18:00.934Z,96475.38
2023-01-18T20:24:23.211Z,96474.31
2023-01-18T20:27:26.127Z,96477.88
2023-01-18T20:30:29.377Z,96474.19
2023-01-18T20:33:33.392Z,96467.59
2023-01-18T20:36:37.005Z,96453.72
2023-01-18T20:39:40.287Z,96464.78
2023-01-18T20:42:43.614Z,96472.81
2023-01-18T20:45:46.697Z,96468.72
2023-01-18T20:48:49.875Z,96461.34
2023-01-18T20:51:53.264Z,96480.75
2023-01-18T20:54:57.239Z,96487.28
2023-01-18T20:58:00.461Z,96488.75
2023-01-18T21:01:16.951Z,96498.69
2023-01-18T21:04:21.088Z,96505.66
2023-01-18T21:07:24.308Z,96516.03
2023-01-18T21:10:38.800Z,96527.63
2023-01-18T21:13:42.559Z,96534.69
2023-01-18T21:16:45.606Z,96530.47
2023-01-18T21:19:54.066Z,96522.56
2023-01-18T21:22:57.965Z,96520.78
2023-01-18T21:26:02.727Z,96513.16
2023-01-18T21:29:06.385Z,96507.31
2023-01-18T21:32:09.719Z,96519.97
2023-01-18T21:35:12.680Z,96519.56
2023-01-18T21:38:16.491Z,96518.75
2023-01-18T21:41:37.805Z,96529.25
2023-01-18T21:44:59.053Z,96517.09
2023-01-18T21:48:09.304Z,96522.69
2023-01-18T21:51:31.147Z,96538.78
2023-01-18T21:54:34.412Z,96538.66
2023-01-18T21:57:37.837Z,96541.25
2023-01-18T22:00:40.981Z,96533.31
2023-01-18T22:04:02.854Z,96536.59
2023-01-18T22:07:06.047Z,96537.81
2023-01-18T22:10:09.691Z,96546.13
2023-01-18T22:13:12.528Z,96558.69
2023-01-18T22:16:18.154Z,96553.50
2023-01-18T22:19:22.369Z,96540.94
2023-01-18T22:22:25.256Z,96549.41
2023-01-18T22:25:28.343Z,96546.00
2023-01-18T22:28:31.567Z,96553.25
2023-01-18T22:31:35.127Z,96544.69
2023-01-18T22:34:37.963Z,96538.53
2023-01-18T22:37:40.857Z,96549.44
2023-01-18T22:40:43.753Z,96548.44
2023-01-18T22:43:47.291Z,96547.63
2023-01-18T22:46:50.317Z,96554.59
2023-01-18T22:49:53.365Z,96552.97
2023-01-18T22:52:56.027Z,96552.97
2023-01-18T22:56:03.315Z,96557.47
2023-01-18T22:59:05.968Z,96565.69
2023-01-18T23:02:09.527Z,96566.78
2023-01-18T23:05:12.548Z,96554.22
2023-01-18T23:08:15.279Z,96552.56
2023-01-18T23:11:21.612Z,96552.56
2023-01-18T23:14:42.709Z,96549.97
2023-01-18T23:17:45.450Z,96545.34
2023-01-18T23:20:47.986Z,96551.22
2023-01-18T23:23:51.185Z,96544.13
2023-01-18T23:26:53.849Z,96550.53
2023-01-18T23:29:59.544Z,96547.59
2023-01-18T23:33:02.141Z,96548.13
2023-01-18T23:36:05.524Z,96545.94
2023-01-18T23:39:26.724Z,96535.44
2023-01-18T23:42:48.188Z,96537.47
2023-01-18T23:46:09.829Z,96536.38
2023-01-18T23:49:30.921Z,96543.31
2023-01-18T23:52:52.514Z,96527.63
2023-01-18T23:55:55.131Z,96518.94
2023-01-18T23:58:58.404Z,96519.50
